This is the latest recevied weather packets stored in our database for station/object AA4XD. If no packets are shown the sender has not sent any weather packets the latest 10 day(s).
| Time | Temp. | Humidity | Pressure | Rain* | Wind** | Luminosity | Snow |
|---|---|---|---|---|---|---|---|
| 1777956870 | 18.33° C | 75% | 1015.2 hPa | 0 mm | - | 0 W/m² | - |
| 1777956567 | 18.89° C | 74% | 1015.1 hPa | 0 mm | - | 0 W/m² | - |
| 1777956265 | 18.89° C | 74% | 1015.3 hPa | 0 mm | - | 0 W/m² | - |
| 1777955961 | 18.89° C | 73% | 1015.3 hPa | 0 mm | - | 0 W/m² | - |
| 1777955657 | 18.89° C | 73% | 1015.3 hPa | 0 mm | - | 0 W/m² | - |
| 1777955354 | 19.44° C | 73% | 1015.4 hPa | 0 mm | - | 0 W/m² | - |
| 1777955050 | 19.44° C | 73% | 1015.4 hPa | 0 mm | - | 0 W/m² | - |
| 1777954748 | 18.89° C | 74% | 1015.7 hPa | 0 mm | - | 0 W/m² | - |
| 1777954445 | 18.89° C | 73% | 1015.5 hPa | 0 mm | - | 0 W/m² | - |
| 1777954141 | 18.89° C | 73% | 1015.4 hPa | 0 mm | - | 0 W/m² | - |
| 1777953839 | 18.89° C | 72% | 1015.5 hPa | 0 mm | - | 0 W/m² | - |
| 1777953535 | 19.44° C | 71% | 1015.4 hPa | 0 mm | - | 0 W/m² | - |
| 1777942926 | 21.11° C | 59% | 1014.3 hPa | 0 mm | - | 0 W/m² | - |
| 1777942016 | 21.67° C | 57% | 1014.1 hPa | 0 mm | - | 0 W/m² | - |
| 1777940803 | 22.22° C | 57% | 1014.1 hPa | 0 mm | - | 0 W/m² | - |
| 1777940501 | 22.78° C | 54% | 1013.8 hPa | 0 mm | - | 0 W/m² | - |
| 1777940198 | 22.78° C | 54% | 1013.7 hPa | 0 mm | - | 1 W/m² | - |
| 1777939896 | 22.78° C | 53% | 1013.4 hPa | 0 mm | - | 3 W/m² | - |
| 1777939593 | 23.33° C | 52% | 1013.5 hPa | 0 mm | - | 5 W/m² | - |
| 1777939291 | 23.33° C | 53% | 1013.6 hPa | 0 mm | - | 8 W/m² | - |
| 1777938987 | 23.89° C | 53% | 1013.2 hPa | 0 mm | - | 12 W/m² | - |
| 1777930801 | 31.11° C | 25% | 1013.1 hPa | 0 mm | - | 318 W/m² | - |
| 1777930195 | 30.56° C | 26% | 1012.7 hPa | 0 mm | - | 439 W/m² | - |
| 1777925046 | 30.56° C | 28% | 1013.7 hPa | 0 mm | - | 753 W/m² | - |
| 1777923831 | 30° C | 30% | 1014 hPa | 0 mm | - | 811 W/m² | - |
* Rain latest hour (hover to see other rain measurements)
** Current wind speed in m/s (hover to see current wind gust speed)